sensor_id;sensor_type;location;lat;lon;timestamp;temperature;humidity
51567;DHT22;37657;53.182;5.638;2023-04-02T00:07:41;4.80;99.90
51567;DHT22;37657;53.182;5.638;2023-04-02T00:10:36;4.70;99.90
51567;DHT22;37657;53.182;5.638;2023-04-02T00:15:29;4.70;99.90
51567;DHT22;37657;53.182;5.638;2023-04-02T00:17:56;4.70;99.90
51567;DHT22;37657;53.182;5.638;2023-04-02T00:20:23;4.70;99.90
51567;DHT22;37657;53.182;5.638;2023-04-02T00:22:49;4.70;99.90
51567;DHT22;37657;53.182;5.638;2023-04-02T00:25:15;4.60;99.90
51567;DHT22;37657;53.182;5.638;2023-04-02T00:27:42;4.60;99.90
51567;DHT22;37657;53.182;5.638;2023-04-02T00:30:11;4.50;99.90
51567;DHT22;37657;53.182;5.638;2023-04-02T00:32:37;4.50;99.90
51567;DHT22;37657;53.182;5.638;2023-04-02T00:35:10;4.50;99.90
51567;DHT22;37657;53.182;5.638;2023-04-02T00:37:37;4.50;99.90
51567;DHT22;37657;53.182;5.638;2023-04-02T00:40:18;4.50;99.90
51567;DHT22;37657;53.182;5.638;2023-04-02T00:42:45;4.40;99.90
51567;DHT22;37657;53.182;5.638;2023-04-02T00:45:36;4.40;99.90
51567;DHT22;37657;53.182;5.638;2023-04-02T00:53:38;4.30;99.90
51567;DHT22;37657;53.182;5.638;2023-04-02T00:56:13;4.30;99.90
51567;DHT22;37657;53.182;5.638;2023-04-02T00:58:41;4.30;99.90
51567;DHT22;37657;53.182;5.638;2023-04-02T01:01:17;4.30;99.90
51567;DHT22;37657;53.182;5.638;2023-04-02T01:03:52;4.20;99.90
51567;DHT22;37657;53.182;5.638;2023-04-02T01:06:18;4.20;99.90
51567;DHT22;37657;53.182;5.638;2023-04-02T01:11:26;4.10;99.90
51567;DHT22;37657;53.182;5.638;2023-04-02T01:16:54;4.10;99.90
51567;DHT22;37657;53.182;5.638;2023-04-02T01:21:59;4.00;99.90
51567;DHT22;37657;53.182;5.638;2023-04-02T01:24:33;4.00;99.90
51567;DHT22;37657;53.182;5.638;2023-04-02T01:27:01;4.00;99.90
51567;DHT22;37657;53.182;5.638;2023-04-02T01:29:50;4.00;99.90
51567;DHT22;37657;53.182;5.638;2023-04-02T01:32:19;4.00;99.90
51567;DHT22;37657;53.182;5.638;2023-04-02T01:34:47;3.90;99.90
51567;DHT22;37657;53.182;5.638;2023-04-02T01:37:34;3.90;99.90
51567;DHT22;37657;53.182;5.638;2023-04-02T01:40:29;3.80;99.90
51567;DHT22;37657;53.182;5.638;2023-04-02T01:43:11;3.90;99.90
51567;DHT22;37657;53.182;5.638;2023-04-02T01:45:40;3.80;99.90
51567;DHT22;37657;53.182;5.638;2023-04-02T01:48:23;3.70;99.90
51567;DHT22;37657;53.182;5.638;2023-04-02T01:50:53;3.70;99.90
51567;DHT22;37657;53.182;5.638;2023-04-02T01:53:21;3.80;99.90
51567;DHT22;37657;53.182;5.638;2023-04-02T01:55:51;3.70;99.90
51567;DHT22;37657;53.182;5.638;2023-04-02T01:58:20;3.70;99.90
51567;DHT22;37657;53.182;5.638;2023-04-02T02:00:56;3.70;99.90
51567;DHT22;37657;53.182;5.638;2023-04-02T02:03:24;3.60;99.90
51567;DHT22;37657;53.182;5.638;2023-04-02T02:05:50;3.60;99.90
51567;DHT22;37657;53.182;5.638;2023-04-02T02:10:58;3.60;99.90
51567;DHT22;37657;53.182;5.638;2023-04-02T02:13:23;3.60;99.90
51567;DHT22;37657;53.182;5.638;2023-04-02T02:15:50;3.60;99.90
51567;DHT22;37657;53.182;5.638;2023-04-02T02:18:20;3.50;99.90
51567;DHT22;37657;53.182;5.638;2023-04-02T02:20:48;3.50;99.90
51567;DHT22;37657;53.182;5.638;2023-04-02T02:23:15;3.50;99.90
51567;DHT22;37657;53.182;5.638;2023-04-02T02:25:41;3.50;99.90
51567;DHT22;37657;53.182;5.638;2023-04-02T02:28:13;3.50;99.90
51567;DHT22;37657;53.182;5.638;2023-04-02T02:30:52;3.40;99.90
51567;DHT22;37657;53.182;5.638;2023-04-02T02:33:36;3.40;99.90
51567;DHT22;37657;53.182;5.638;2023-04-02T02:36:12;3.50;99.90
51567;DHT22;37657;53.182;5.638;2023-04-02T02:38:46;3.40;99.90
51567;DHT22;37657;53.182;5.638;2023-04-02T02:41:38;3.40;99.90
51567;DHT22;37657;53.182;5.638;2023-04-02T02:46:41;3.30;99.90
51567;DHT22;37657;53.182;5.638;2023-04-02T02:49:16;3.30;99.90
51567;DHT22;37657;53.182;5.638;2023-04-02T02:51:54;3.30;99.90
51567;DHT22;37657;53.182;5.638;2023-04-02T02:54:22;3.30;99.90
51567;DHT22;37657;53.182;5.638;2023-04-02T02:56:54;3.30;99.90
51567;DHT22;37657;53.182;5.638;2023-04-02T02:59:21;3.30;99.90
51567;DHT22;37657;53.182;5.638;2023-04-02T03:01:47;3.20;99.90
51567;DHT22;37657;53.182;5.638;2023-04-02T03:04:19;3.10;99.90
51567;DHT22;37657;53.182;5.638;2023-04-02T03:06:54;3.10;99.90
51567;DHT22;37657;53.182;5.638;2023-04-02T03:14:59;3.10;99.90
51567;DHT22;37657;53.182;5.638;2023-04-02T03:17:44;3.10;99.90
51567;DHT22;37657;53.182;5.638;2023-04-02T03:20:19;3.00;99.90
51567;DHT22;37657;53.182;5.638;2023-04-02T03:22:57;3.00;99.90
51567;DHT22;37657;53.182;5.638;2023-04-02T03:25:27;3.00;99.90
51567;DHT22;37657;53.182;5.638;2023-04-02T03:28:03;2.90;99.90
51567;DHT22;37657;53.182;5.638;2023-04-02T03:30:39;2.90;99.90
51567;DHT22;37657;53.182;5.638;2023-04-02T03:33:14;2.90;99.90
51567;DHT22;37657;53.182;5.638;2023-04-02T03:36:03;2.90;99.90
51567;DHT22;37657;53.182;5.638;2023-04-02T03:38:40;2.90;99.90
51567;DHT22;37657;53.182;5.638;2023-04-02T03:41:30;2.90;99.90
51567;DHT22;37657;53.182;5.638;2023-04-02T03:44:00;2.80;99.90
51567;DHT22;37657;53.182;5.638;2023-04-02T03:46:35;2.80;99.90
51567;DHT22;37657;53.182;5.638;2023-04-02T03:49:08;2.80;99.90
51567;DHT22;37657;53.182;5.638;2023-04-02T03:51:36;2.80;99.90
51567;DHT22;37657;53.182;5.638;2023-04-02T03:54:03;2.80;99.90
51567;DHT22;37657;53.182;5.638;2023-04-02T03:56:35;2.80;99.90
51567;DHT22;37657;53.182;5.638;2023-04-02T03:59:35;2.80;99.90
51567;DHT22;37657;53.182;5.638;2023-04-02T04:04:39;2.70;99.90
51567;DHT22;37657;53.182;5.638;2023-04-02T04:07:10;2.70;99.90
51567;DHT22;37657;53.182;5.638;2023-04-02T04:09:40;2.80;99.90
51567;DHT22;37657;53.182;5.638;2023-04-02T04:12:39;2.70;99.90
51567;DHT22;37657;53.182;5.638;2023-04-02T04:15:13;2.70;99.90
51567;DHT22;37657;53.182;5.638;2023-04-02T04:20:28;2.70;99.90
51567;DHT22;37657;53.182;5.638;2023-04-02T04:23:07;2.60;99.90
51567;DHT22;37657;53.182;5.638;2023-04-02T04:25:33;2.70;99.90
51567;DHT22;37657;53.182;5.638;2023-04-02T04:28:53;2.70;99.90
51567;DHT22;37657;53.182;5.638;2023-04-02T04:31:17;2.70;99.90
51567;DHT22;37657;53.182;5.638;2023-04-02T04:33:48;2.60;99.90
51567;DHT22;37657;53.182;5.638;2023-04-02T04:36:27;2.60;99.90
51567;DHT22;37657;53.182;5.638;2023-04-02T04:38:57;2.60;99.90
51567;DHT22;37657;53.182;5.638;2023-04-02T04:41:28;2.50;99.90
51567;DHT22;37657;53.182;5.638;2023-04-02T04:44:27;2.50;99.90
51567;DHT22;37657;53.182;5.638;2023-04-02T04:46:59;2.50;99.90
51567;DHT22;37657;53.182;5.638;2023-04-02T04:49:42;2.40;99.90
51567;DHT22;37657;53.182;5.638;2023-04-02T04:52:20;2.40;99.90
51567;DHT22;37657;53.182;5.638;2023-04-02T04:54:46;2.40;99.90
51567;DHT22;37657;53.182;5.638;2023-04-02T04:57:28;2.40;99.90
51567;DHT22;37657;53.182;5.638;2023-04-02T05:00:26;2.40;99.90
51567;DHT22;37657;53.182;5.638;2023-04-02T05:03:19;2.50;99.90
51567;DHT22;37657;53.182;5.638;2023-04-02T05:05:46;2.40;99.90
51567;DHT22;37657;53.182;5.638;2023-04-02T05:08:18;2.40;99.90
51567;DHT22;37657;53.182;5.638;2023-04-02T05:10:50;2.50;99.90
51567;DHT22;37657;53.182;5.638;2023-04-02T05:13:24;2.50;99.90
51567;DHT22;37657;53.182;5.638;2023-04-02T05:18:50;2.50;99.90
51567;DHT22;37657;53.182;5.638;2023-04-02T05:27:38;2.50;99.90
51567;DHT22;37657;53.182;5.638;2023-04-02T05:30:31;2.50;99.90
51567;DHT22;37657;53.182;5.638;2023-04-02T05:36:08;2.50;99.90
51567;DHT22;37657;53.182;5.638;2023-04-02T05:38:39;2.50;99.90
51567;DHT22;37657;53.182;5.638;2023-04-02T05:41:24;2.50;99.90
51567;DHT22;37657;53.182;5.638;2023-04-02T05:44:21;2.60;99.90
51567;DHT22;37657;53.182;5.638;2023-04-02T05:46:58;2.70;99.90
51567;DHT22;37657;53.182;5.638;2023-04-02T05:49:31;2.80;99.90
51567;DHT22;37657;53.182;5.638;2023-04-02T05:52:00;2.80;99.90
51567;DHT22;37657;53.182;5.638;2023-04-02T05:55:31;2.90;99.90
51567;DHT22;37657;53.182;5.638;2023-04-02T05:57:31;2.90;99.90
51567;DHT22;37657;53.182;5.638;2023-04-02T05:59:59;3.00;99.90
51567;DHT22;37657;53.182;5.638;2023-04-02T06:02:40;3.10;99.90
51567;DHT22;37657;53.182;5.638;2023-04-02T06:05:19;3.30;99.90
51567;DHT22;37657;53.182;5.638;2023-04-02T06:08:13;3.50;99.90
51567;DHT22;37657;53.182;5.638;2023-04-02T06:10:59;3.70;99.90
51567;DHT22;37657;53.182;5.638;2023-04-02T06:13:28;3.80;99.90
51567;DHT22;37657;53.182;5.638;2023-04-02T06:15:53;3.90;99.90
51567;DHT22;37657;53.182;5.638;2023-04-02T06:18:23;4.10;99.90
51567;DHT22;37657;53.182;5.638;2023-04-02T06:20:49;4.30;99.90
51567;DHT22;37657;53.182;5.638;2023-04-02T06:23:18;4.30;99.90
51567;DHT22;37657;53.182;5.638;2023-04-02T06:26:04;4.20;99.90
51567;DHT22;37657;53.182;5.638;2023-04-02T06:28:59;4.30;99.90
51567;DHT22;37657;53.182;5.638;2023-04-02T06:32:01;4.30;99.90
51567;DHT22;37657;53.182;5.638;2023-04-02T06:34:28;4.30;99.90
51567;DHT22;37657;53.182;5.638;2023-04-02T06:36:58;4.40;99.90
51567;DHT22;37657;53.182;5.638;2023-04-02T06:39:25;4.40;99.90
51567;DHT22;37657;53.182;5.638;2023-04-02T06:42:10;4.50;99.90
51567;DHT22;37657;53.182;5.638;2023-04-02T06:44:37;4.60;99.90
51567;DHT22;37657;53.182;5.638;2023-04-02T06:47:17;4.60;99.90
51567;DHT22;37657;53.182;5.638;2023-04-02T06:49:48;4.70;99.90
51567;DHT22;37657;53.182;5.638;2023-04-02T06:52:56;4.80;99.90
51567;DHT22;37657;53.182;5.638;2023-04-02T06:57:42;5.00;99.90
51567;DHT22;37657;53.182;5.638;2023-04-02T07:02:47;5.20;99.90
51567;DHT22;37657;53.182;5.638;2023-04-02T07:05:17;5.20;99.90
51567;DHT22;37657;53.182;5.638;2023-04-02T07:07:42;5.30;99.90
51567;DHT22;37657;53.182;5.638;2023-04-02T07:10:08;5.70;99.90
51567;DHT22;37657;53.182;5.638;2023-04-02T07:12:34;5.40;99.90
51567;DHT22;37657;53.182;5.638;2023-04-02T07:15:00;5.50;99.90
51567;DHT22;37657;53.182;5.638;2023-04-02T07:17:25;5.40;99.90
51567;DHT22;37657;53.182;5.638;2023-04-02T07:19:51;5.50;99.90
51567;DHT22;37657;53.182;5.638;2023-04-02T07:22:17;5.60;99.90
51567;DHT22;37657;53.182;5.638;2023-04-02T07:24:44;5.70;99.90
51567;DHT22;37657;53.182;5.638;2023-04-02T07:27:11;5.70;99.90
51567;DHT22;37657;53.182;5.638;2023-04-02T07:29:37;5.70;99.90
51567;DHT22;37657;53.182;5.638;2023-04-02T07:32:11;5.80;99.90
51567;DHT22;37657;53.182;5.638;2023-04-02T07:34:37;5.80;99.90
51567;DHT22;37657;53.182;5.638;2023-04-02T07:37:04;5.80;99.90
51567;DHT22;37657;53.182;5.638;2023-04-02T07:39:29;5.90;99.90
51567;DHT22;37657;53.182;5.638;2023-04-02T07:42:01;5.90;99.90
51567;DHT22;37657;53.182;5.638;2023-04-02T07:44:27;5.90;99.90
51567;DHT22;37657;53.182;5.638;2023-04-02T07:46:53;5.90;99.90
51567;DHT22;37657;53.182;5.638;2023-04-02T07:49:19;6.00;99.90
51567;DHT22;37657;53.182;5.638;2023-04-02T07:51:44;6.00;99.90
51567;DHT22;37657;53.182;5.638;2023-04-02T07:54:10;6.00;99.90
51567;DHT22;37657;53.182;5.638;2023-04-02T07:56:36;6.00;99.90
51567;DHT22;37657;53.182;5.638;2023-04-02T07:59:02;6.10;99.90
51567;DHT22;37657;53.182;5.638;2023-04-02T08:01:29;6.10;99.90
51567;DHT22;37657;53.182;5.638;2023-04-02T08:04:00;6.30;99.90
51567;DHT22;37657;53.182;5.638;2023-04-02T08:06:26;6.30;99.90
51567;DHT22;37657;53.182;5.638;2023-04-02T08:08:52;6.30;99.90
51567;DHT22;37657;53.182;5.638;2023-04-02T08:11:17;6.30;99.90
51567;DHT22;37657;53.182;5.638;2023-04-02T08:13:43;6.30;99.90
51567;DHT22;37657;53.182;5.638;2023-04-02T08:16:09;6.30;99.90
51567;DHT22;37657;53.182;5.638;2023-04-02T08:18:35;6.40;99.90
51567;DHT22;37657;53.182;5.638;2023-04-02T08:21:01;6.60;99.90
51567;DHT22;37657;53.182;5.638;2023-04-02T08:23:27;6.70;99.90
51567;DHT22;37657;53.182;5.638;2023-04-02T08:25:54;6.70;99.90
51567;DHT22;37657;53.182;5.638;2023-04-02T08:28:20;6.70;99.90
51567;DHT22;37657;53.182;5.638;2023-04-02T08:30:47;6.70;99.90
51567;DHT22;37657;53.182;5.638;2023-04-02T08:33:16;6.80;99.90
51567;DHT22;37657;53.182;5.638;2023-04-02T08:35:43;6.70;99.90
51567;DHT22;37657;53.182;5.638;2023-04-02T08:38:13;6.90;99.90
51567;DHT22;37657;53.182;5.638;2023-04-02T08:40:42;7.00;99.90
51567;DHT22;37657;53.182;5.638;2023-04-02T08:43:47;7.10;99.90
51567;DHT22;37657;53.182;5.638;2023-04-02T08:46:40;7.10;99.90
51567;DHT22;37657;53.182;5.638;2023-04-02T08:49:15;7.20;99.90
51567;DHT22;37657;53.182;5.638;2023-04-02T08:51:43;7.20;99.90
51567;DHT22;37657;53.182;5.638;2023-04-02T08:54:20;7.20;99.90
51567;DHT22;37657;53.182;5.638;2023-04-02T08:56:51;7.30;99.90
51567;DHT22;37657;53.182;5.638;2023-04-02T08:59:38;7.30;99.90
51567;DHT22;37657;53.182;5.638;2023-04-02T09:02:22;7.20;99.90
51567;DHT22;37657;53.182;5.638;2023-04-02T09:04:50;7.30;99.90
51567;DHT22;37657;53.182;5.638;2023-04-02T09:07:16;7.40;99.90
51567;DHT22;37657;53.182;5.638;2023-04-02T09:09:43;7.50;99.90
51567;DHT22;37657;53.182;5.638;2023-04-02T09:12:25;7.50;99.90
51567;DHT22;37657;53.182;5.638;2023-04-02T09:17:26;7.50;99.90
51567;DHT22;37657;53.182;5.638;2023-04-02T09:22:31;7.50;99.90
51567;DHT22;37657;53.182;5.638;2023-04-02T09:25:01;7.50;99.90
51567;DHT22;37657;53.182;5.638;2023-04-02T09:27:34;7.50;99.90
51567;DHT22;37657;53.182;5.638;2023-04-02T09:30:05;7.60;99.90
51567;DHT22;37657;53.182;5.638;2023-04-02T09:35:14;7.60;99.90
51567;DHT22;37657;53.182;5.638;2023-04-02T09:37:41;7.70;99.90
51567;DHT22;37657;53.182;5.638;2023-04-02T09:42:43;7.70;99.90
51567;DHT22;37657;53.182;5.638;2023-04-02T09:45:16;7.70;99.90
51567;DHT22;37657;53.182;5.638;2023-04-02T09:47:44;7.70;99.90
51567;DHT22;37657;53.182;5.638;2023-04-02T09:50:31;7.80;99.90
51567;DHT22;37657;53.182;5.638;2023-04-02T09:52:58;7.80;99.90
51567;DHT22;37657;53.182;5.638;2023-04-02T09:55:41;7.90;99.90
51567;DHT22;37657;53.182;5.638;2023-04-02T09:58:16;7.90;99.90
51567;DHT22;37657;53.182;5.638;2023-04-02T10:00:49;7.90;99.90
51567;DHT22;37657;53.182;5.638;2023-04-02T10:03:26;7.90;99.90
51567;DHT22;37657;53.182;5.638;2023-04-02T10:06:13;7.90;99.90
51567;DHT22;37657;53.182;5.638;2023-04-02T10:08:41;7.90;99.90
51567;DHT22;37657;53.182;5.638;2023-04-02T10:11:11;7.90;99.90
51567;DHT22;37657;53.182;5.638;2023-04-02T10:13:59;7.90;99.90
51567;DHT22;37657;53.182;5.638;2023-04-02T10:16:39;7.90;99.90
51567;DHT22;37657;53.182;5.638;2023-04-02T10:22:02;8.00;99.90
51567;DHT22;37657;53.182;5.638;2023-04-02T10:24:29;8.10;99.90
51567;DHT22;37657;53.182;5.638;2023-04-02T10:27:17;8.10;99.90
51567;DHT22;37657;53.182;5.638;2023-04-02T10:29:59;8.10;99.90
51567;DHT22;37657;53.182;5.638;2023-04-02T10:32:50;8.30;99.90
51567;DHT22;37657;53.182;5.638;2023-04-02T10:35:45;8.30;99.90
51567;DHT22;37657;53.182;5.638;2023-04-02T10:38:23;8.30;99.90
51567;DHT22;37657;53.182;5.638;2023-04-02T10:40:58;8.20;99.90
51567;DHT22;37657;53.182;5.638;2023-04-02T10:43:51;8.30;99.90
51567;DHT22;37657;53.182;5.638;2023-04-02T10:52:26;8.40;99.90
51567;DHT22;37657;53.182;5.638;2023-04-02T10:55:03;8.40;99.90
51567;DHT22;37657;53.182;5.638;2023-04-02T10:57:37;8.40;99.90
51567;DHT22;37657;53.182;5.638;2023-04-02T11:03:06;8.30;99.90
51567;DHT22;37657;53.182;5.638;2023-04-02T11:05:42;8.30;99.90
51567;DHT22;37657;53.182;5.638;2023-04-02T11:11:16;8.40;99.90
51567;DHT22;37657;53.182;5.638;2023-04-02T11:14:04;8.40;99.90
51567;DHT22;37657;53.182;5.638;2023-04-02T11:16:35;8.30;99.90
51567;DHT22;37657;53.182;5.638;2023-04-02T11:21:46;8.40;99.90
51567;DHT22;37657;53.182;5.638;2023-04-02T11:30:05;8.60;99.90
51567;DHT22;37657;53.182;5.638;2023-04-02T11:32:40;8.60;99.90
51567;DHT22;37657;53.182;5.638;2023-04-02T11:37:56;8.50;99.90
51567;DHT22;37657;53.182;5.638;2023-04-02T11:48:45;8.50;99.90
51567;DHT22;37657;53.182;5.638;2023-04-02T11:53:50;8.50;99.90
51567;DHT22;37657;53.182;5.638;2023-04-02T11:56:35;8.60;99.90
51567;DHT22;37657;53.182;5.638;2023-04-02T12:02:14;8.60;99.90
51567;DHT22;37657;53.182;5.638;2023-04-02T12:04:47;8.60;99.90
51567;DHT22;37657;53.182;5.638;2023-04-02T12:10:20;8.60;99.90
51567;DHT22;37657;53.182;5.638;2023-04-02T12:12:46;8.60;99.90
51567;DHT22;37657;53.182;5.638;2023-04-02T12:17:51;8.60;99.90
51567;DHT22;37657;53.182;5.638;2023-04-02T12:20:21;8.60;99.90
51567;DHT22;37657;53.182;5.638;2023-04-02T12:22:54;8.50;99.90
51567;DHT22;37657;53.182;5.638;2023-04-02T12:25:30;8.40;99.90
51567;DHT22;37657;53.182;5.638;2023-04-02T12:33:37;8.50;99.90
51567;DHT22;37657;53.182;5.638;2023-04-02T12:36:05;8.60;99.90
51567;DHT22;37657;53.182;5.638;2023-04-02T12:38:35;8.50;99.90
51567;DHT22;37657;53.182;5.638;2023-04-02T12:41:24;8.60;99.90
51567;DHT22;37657;53.182;5.638;2023-04-02T12:46:27;8.60;99.90
51567;DHT22;37657;53.182;5.638;2023-04-02T12:49:02;8.50;99.90
51567;DHT22;37657;53.182;5.638;2023-04-02T12:51:29;8.60;99.90
51567;DHT22;37657;53.182;5.638;2023-04-02T12:53:55;8.50;99.90
51567;DHT22;37657;53.182;5.638;2023-04-02T12:56:22;8.60;99.90
51567;DHT22;37657;53.182;5.638;2023-04-02T12:59:00;8.60;99.90
51567;DHT22;37657;53.182;5.638;2023-04-02T13:01:28;8.70;99.90
51567;DHT22;37657;53.182;5.638;2023-04-02T13:06:34;8.70;99.90
51567;DHT22;37657;53.182;5.638;2023-04-02T13:09:03;8.70;99.90
51567;DHT22;37657;53.182;5.638;2023-04-02T13:11:34;8.80;99.90
51567;DHT22;37657;53.182;5.638;2023-04-02T13:14:01;8.80;99.90
51567;DHT22;37657;53.182;5.638;2023-04-02T13:16:37;8.70;99.90
51567;DHT22;37657;53.182;5.638;2023-04-02T13:19:21;8.80;99.90
51567;DHT22;37657;53.182;5.638;2023-04-02T13:21:47;8.70;99.90
51567;DHT22;37657;53.182;5.638;2023-04-02T13:24:22;8.60;99.90
51567;DHT22;37657;53.182;5.638;2023-04-02T13:26:49;8.60;99.90
51567;DHT22;37657;53.182;5.638;2023-04-02T13:29:19;8.60;99.90
51567;DHT22;37657;53.182;5.638;2023-04-02T13:31:46;8.60;99.90
51567;DHT22;37657;53.182;5.638;2023-04-02T13:34:11;8.50;99.90
51567;DHT22;37657;53.182;5.638;2023-04-02T13:36:37;8.50;99.90
51567;DHT22;37657;53.182;5.638;2023-04-02T13:39:03;8.50;99.90
51567;DHT22;37657;53.182;5.638;2023-04-02T13:41:31;8.50;99.90
51567;DHT22;37657;53.182;5.638;2023-04-02T13:44:00;8.60;99.90
51567;DHT22;37657;53.182;5.638;2023-04-02T13:46:28;8.60;99.90
51567;DHT22;37657;53.182;5.638;2023-04-02T13:48:55;8.60;99.90
51567;DHT22;37657;53.182;5.638;2023-04-02T13:51:34;8.50;99.90
51567;DHT22;37657;53.182;5.638;2023-04-02T13:54:00;8.60;99.90
51567;DHT22;37657;53.182;5.638;2023-04-02T13:56:26;8.60;99.90
51567;DHT22;37657;53.182;5.638;2023-04-02T13:58:51;8.70;99.90
51567;DHT22;37657;53.182;5.638;2023-04-02T14:01:18;8.70;99.90
51567;DHT22;37657;53.182;5.638;2023-04-02T14:03:45;8.70;99.90
51567;DHT22;37657;53.182;5.638;2023-04-02T14:12:16;8.50;99.90
51567;DHT22;37657;53.182;5.638;2023-04-02T14:20:48;8.60;99.90
51567;DHT22;37657;53.182;5.638;2023-04-02T14:23:36;8.60;99.90
51567;DHT22;37657;53.182;5.638;2023-04-02T14:26:13;8.50;99.90
51567;DHT22;37657;53.182;5.638;2023-04-02T14:36:58;8.60;99.90
51567;DHT22;37657;53.182;5.638;2023-04-02T14:42:42;8.50;99.90
51567;DHT22;37657;53.182;5.638;2023-04-02T14:45:22;8.60;99.90
51567;DHT22;37657;53.182;5.638;2023-04-02T14:48:04;8.60;99.90
51567;DHT22;37657;53.182;5.638;2023-04-02T14:50:37;8.60;99.90
51567;DHT22;37657;53.182;5.638;2023-04-02T14:53:17;8.60;99.90
51567;DHT22;37657;53.182;5.638;2023-04-02T14:55:46;8.50;99.90
51567;DHT22;37657;53.182;5.638;2023-04-02T14:58:21;8.50;99.90
51567;DHT22;37657;53.182;5.638;2023-04-02T15:01:09;8.40;99.90
51567;DHT22;37657;53.182;5.638;2023-04-02T15:03:49;8.40;99.90
51567;DHT22;37657;53.182;5.638;2023-04-02T15:06:22;8.30;99.90
51567;DHT22;37657;53.182;5.638;2023-04-02T15:08:53;8.30;99.90
51567;DHT22;37657;53.182;5.638;2023-04-02T15:11:34;8.30;99.90
51567;DHT22;37657;53.182;5.638;2023-04-02T15:14:44;8.40;99.90
51567;DHT22;37657;53.182;5.638;2023-04-02T15:16:50;8.40;99.90
51567;DHT22;37657;53.182;5.638;2023-04-02T15:19:17;8.30;99.90
51567;DHT22;37657;53.182;5.638;2023-04-02T15:22:40;8.30;99.90
51567;DHT22;37657;53.182;5.638;2023-04-02T15:44:09;8.20;99.90
51567;DHT22;37657;53.182;5.638;2023-04-02T15:46:56;8.20;99.90
51567;DHT22;37657;53.182;5.638;2023-04-02T15:52:26;8.20;99.90
51567;DHT22;37657;53.182;5.638;2023-04-02T15:55:20;8.30;99.90
51567;DHT22;37657;53.182;5.638;2023-04-02T16:00:29;8.10;99.90
51567;DHT22;37657;53.182;5.638;2023-04-02T16:11:36;8.00;99.90
51567;DHT22;37657;53.182;5.638;2023-04-02T16:14:23;8.20;99.90
51567;DHT22;37657;53.182;5.638;2023-04-02T16:16:52;8.00;99.90
51567;DHT22;37657;53.182;5.638;2023-04-02T16:19:39;7.90;99.90
51567;DHT22;37657;53.182;5.638;2023-04-02T16:22:20;8.00;99.90
51567;DHT22;37657;53.182;5.638;2023-04-02T16:25:14;8.00;99.90
51567;DHT22;37657;53.182;5.638;2023-04-02T16:27:44;8.10;99.90
51567;DHT22;37657;53.182;5.638;2023-04-02T16:35:42;8.00;99.90
51567;DHT22;37657;53.182;5.638;2023-04-02T16:43:36;7.80;99.90
51567;DHT22;37657;53.182;5.638;2023-04-02T17:03:29;7.60;99.90
51567;DHT22;37657;53.182;5.638;2023-04-02T17:06:03;7.60;99.90
51567;DHT22;37657;53.182;5.638;2023-04-02T17:08:36;7.60;99.90
51567;DHT22;37657;53.182;5.638;2023-04-02T17:11:09;7.50;99.90
51567;DHT22;37657;53.182;5.638;2023-04-02T17:13:46;7.50;99.90
51567;DHT22;37657;53.182;5.638;2023-04-02T17:16:19;7.50;99.90
51567;DHT22;37657;53.182;5.638;2023-04-02T17:18:53;7.50;99.90
51567;DHT22;37657;53.182;5.638;2023-04-02T17:21:24;7.30;99.90
51567;DHT22;37657;53.182;5.638;2023-04-02T17:24:03;7.30;99.90
51567;DHT22;37657;53.182;5.638;2023-04-02T17:26:32;7.30;99.90
51567;DHT22;37657;53.182;5.638;2023-04-02T17:29:03;7.40;99.90
51567;DHT22;37657;53.182;5.638;2023-04-02T17:31:32;7.30;99.90
51567;DHT22;37657;53.182;5.638;2023-04-02T17:34:12;7.20;99.90
51567;DHT22;37657;53.182;5.638;2023-04-02T17:39:40;7.10;99.90
51567;DHT22;37657;53.182;5.638;2023-04-02T17:42:21;7.00;99.90
51567;DHT22;37657;53.182;5.638;2023-04-02T17:45:03;7.00;99.90
51567;DHT22;37657;53.182;5.638;2023-04-02T17:48:02;7.00;99.90
51567;DHT22;37657;53.182;5.638;2023-04-02T17:50:47;6.90;99.90
51567;DHT22;37657;53.182;5.638;2023-04-02T17:53:28;6.80;99.90
51567;DHT22;37657;53.182;5.638;2023-04-02T18:04:43;6.50;99.90
51567;DHT22;37657;53.182;5.638;2023-04-02T18:07:55;6.40;99.90
51567;DHT22;37657;53.182;5.638;2023-04-02T18:11:05;6.30;99.90
51567;DHT22;37657;53.182;5.638;2023-04-02T18:13:35;6.20;99.90
51567;DHT22;37657;53.182;5.638;2023-04-02T18:32:35;5.80;99.90
51567;DHT22;37657;53.182;5.638;2023-04-02T18:35:32;5.70;99.90
51567;DHT22;37657;53.182;5.638;2023-04-02T18:41:20;5.70;99.90
51567;DHT22;37657;53.182;5.638;2023-04-02T18:44:05;5.60;99.90
51567;DHT22;37657;53.182;5.638;2023-04-02T18:46:48;5.60;99.90
51567;DHT22;37657;53.182;5.638;2023-04-02T18:49:34;5.50;99.90
51567;DHT22;37657;53.182;5.638;2023-04-02T18:52:07;5.40;99.90
51567;DHT22;37657;53.182;5.638;2023-04-02T18:57:18;5.30;99.90
51567;DHT22;37657;53.182;5.638;2023-04-02T18:59:55;5.20;99.90
51567;DHT22;37657;53.182;5.638;2023-04-02T19:08:23;5.20;99.90
51567;DHT22;37657;53.182;5.638;2023-04-02T19:10:57;5.20;99.90
51567;DHT22;37657;53.182;5.638;2023-04-02T19:13:23;5.10;99.90
51567;DHT22;37657;53.182;5.638;2023-04-02T19:16:07;5.10;99.90
51567;DHT22;37657;53.182;5.638;2023-04-02T19:29:49;4.80;99.90
51567;DHT22;37657;53.182;5.638;2023-04-02T19:34:56;4.80;99.90
51567;DHT22;37657;53.182;5.638;2023-04-02T19:37:40;4.80;99.90
51567;DHT22;37657;53.182;5.638;2023-04-02T19:43:02;4.70;99.90
51567;DHT22;37657;53.182;5.638;2023-04-02T19:45:38;4.70;99.90
51567;DHT22;37657;53.182;5.638;2023-04-02T19:48:26;4.60;99.90
51567;DHT22;37657;53.182;5.638;2023-04-02T19:50:53;4.60;99.90
51567;DHT22;37657;53.182;5.638;2023-04-02T19:53:19;4.50;99.90
51567;DHT22;37657;53.182;5.638;2023-04-02T19:55:45;4.40;99.90
51567;DHT22;37657;53.182;5.638;2023-04-02T19:58:28;4.40;99.90
51567;DHT22;37657;53.182;5.638;2023-04-02T20:00:55;4.40;99.90
51567;DHT22;37657;53.182;5.638;2023-04-02T20:03:21;4.40;99.90
51567;DHT22;37657;53.182;5.638;2023-04-02T20:05:47;4.40;99.90
51567;DHT22;37657;53.182;5.638;2023-04-02T20:08:13;4.40;99.90
51567;DHT22;37657;53.182;5.638;2023-04-02T20:10:39;4.40;99.90
51567;DHT22;37657;53.182;5.638;2023-04-02T20:13:05;4.40;99.90
51567;DHT22;37657;53.182;5.638;2023-04-02T20:15:30;4.40;99.90
51567;DHT22;37657;53.182;5.638;2023-04-02T20:17:56;4.40;99.90
51567;DHT22;37657;53.182;5.638;2023-04-02T20:20:22;4.40;99.90
51567;DHT22;37657;53.182;5.638;2023-04-02T20:22:47;4.40;99.90
51567;DHT22;37657;53.182;5.638;2023-04-02T20:25:13;4.40;99.90
51567;DHT22;37657;53.182;5.638;2023-04-02T20:27:40;4.40;99.90
51567;DHT22;37657;53.182;5.638;2023-04-02T20:30:06;4.40;99.90
51567;DHT22;37657;53.182;5.638;2023-04-02T20:32:31;4.40;99.90
51567;DHT22;37657;53.182;5.638;2023-04-02T20:34:57;4.40;99.90
51567;DHT22;37657;53.182;5.638;2023-04-02T20:37:23;4.40;99.90
51567;DHT22;37657;53.182;5.638;2023-04-02T20:39:48;4.30;99.90
51567;DHT22;37657;53.182;5.638;2023-04-02T20:42:17;4.30;99.90
51567;DHT22;37657;53.182;5.638;2023-04-02T20:44:42;4.30;99.90
51567;DHT22;37657;53.182;5.638;2023-04-02T20:47:08;4.20;99.90
51567;DHT22;37657;53.182;5.638;2023-04-02T20:49:35;4.30;99.90
51567;DHT22;37657;53.182;5.638;2023-04-02T20:52:00;4.30;99.90